Time;durP1;ratioP1;P1;durP2;ratioP2;P2;SDS_P1;SDS_P2;PMS_P1;PMS_P2;Temp;Humidity;BMP_temperature;BMP_pressure;BME280_temperature;BME280_humidity;BME280_pressure;Samples;Min_cycle;Max_cycle;Signal;HPM_P1;HPM_P2
2023/05/22 00:00:12;;;;;;;8.85;7.50;;;;;;;19.37;54.99;99012.16;5028641;28;20041;-73
2023/05/22 00:02:41;;;;;;;9.52;8.55;;;;;;;19.31;55.13;99015.44;5028458;28;20100;-73
2023/05/22 00:05:10;;;;;;;9.80;8.68;;;;;;;19.32;55.42;99009.09;5027448;28;20116;-72
2023/05/22 00:07:36;;;;;;;8.07;7.28;;;;;;;18.93;55.09;98941.25;5028570;28;20197;-72
2023/05/22 00:10:05;;;;;;;10.55;8.05;;;;;;;19.11;55.47;98973.56;5028081;28;20088;-72
2023/05/22 00:12:32;;;;;;;10.25;9.20;;;;;;;19.26;55.70;98996.25;5027857;28;20322;-72
2023/05/22 00:14:59;;;;;;;9.90;8.88;;;;;;;18.70;55.60;98905.03;5028349;28;20041;-72
2023/05/22 00:17:29;;;;;;;10.65;8.43;;;;;;;18.94;55.58;98951.00;5027218;28;20034;-72
2023/05/22 00:20:01;;;;;;;10.68;8.60;;;;;;;18.90;55.46;98955.81;5028603;28;20294;-73
2023/05/22 00:22:30;;;;;;;9.63;8.52;;;;;;;19.04;55.49;98978.66;5028143;28;20049;-73
2023/05/22 00:24:57;;;;;;;9.80;8.77;;;;;;;19.16;55.58;99004.34;5027069;28;20042;-73
2023/05/22 00:27:25;;;;;;;9.18;8.23;;;;;;;19.10;55.88;98999.56;5028455;28;20056;-73
2023/05/22 00:29:52;;;;;;;9.80;8.80;;;;;;;19.04;55.98;99012.72;5027707;28;20041;-73
2023/05/22 00:32:18;;;;;;;9.98;8.52;;;;;;;18.99;56.25;99004.25;5027224;28;20293;-72
2023/05/22 00:34:45;;;;;;;9.50;7.95;;;;;;;18.98;56.30;99002.56;5027987;28;20053;-73
2023/05/22 00:37:12;;;;;;;11.70;9.30;;;;;;;18.95;55.89;99009.09;5027985;28;20302;-74
2023/05/22 00:39:39;;;;;;;11.82;9.05;;;;;;;18.95;56.02;98997.50;5028419;28;20046;-73
2023/05/22 00:42:06;;;;;;;10.40;9.25;;;;;;;18.96;56.04;98999.19;5028195;28;20292;-73
2023/05/22 00:44:34;;;;;;;9.57;8.57;;;;;;;18.96;55.93;98994.66;5027532;28;20158;-73
2023/05/22 00:47:01;;;;;;;9.32;7.88;;;;;;;18.94;56.03;98990.44;5028056;28;20041;-73
2023/05/22 00:49:27;;;;;;;9.00;8.10;;;;;;;18.87;55.87;98999.06;5027653;28;20217;-73
2023/05/22 00:51:54;;;;;;;9.35;7.97;;;;;;;18.85;56.04;98997.53;5028000;28;20061;-73
2023/05/22 00:54:21;;;;;;;9.90;7.93;;;;;;;18.80;56.57;99000.66;5027622;28;20045;-73
2023/05/22 00:56:49;;;;;;;9.93;8.20;;;;;;;18.73;56.21;98998.69;5027369;28;20052;-73
2023/05/22 00:59:16;;;;;;;9.73;8.60;;;;;;;18.71;56.69;98997.97;5027549;28;20049;-73
2023/05/22 01:01:45;;;;;;;10.13;8.23;;;;;;;18.65;56.52;98991.34;5027208;28;20045;-73
2023/05/22 01:04:14;;;;;;;8.50;7.70;;;;;;;18.65;56.39;98998.56;5027494;28;20246;-73
2023/05/22 01:06:41;;;;;;;8.30;7.47;;;;;;;18.61;56.84;98989.94;5027130;28;20084;-73
2023/05/22 01:09:08;;;;;;;9.02;8.05;;;;;;;16.21;56.68;98589.78;5027016;28;20088;-73
2023/05/22 01:11:41;;;;;;;8.18;7.38;;;;;;;18.60;56.83;98993.63;5027006;28;20042;-74
2023/05/22 01:14:14;;;;;;;8.45;7.55;;;;;;;18.28;56.90;98948.31;5026451;28;20042;-73
2023/05/22 01:16:51;;;;;;;10.13;7.20;;;;;;;18.52;57.35;98991.66;5027530;28;20038;-73
2023/05/22 01:19:39;;;;;;;9.50;7.32;;;;;;;18.49;58.11;98996.44;5026932;28;20105;-73
2023/05/22 01:22:20;;;;;;;13.30;8.80;;;;;;;17.95;58.09;98926.31;5026384;28;20065;-73
2023/05/22 01:25:12;;;;;;;8.80;7.47;;;;;;;18.35;58.24;98992.34;5026640;28;20069;-74
2023/05/22 01:28:08;;;;;;;9.95;7.68;;;;;;;18.23;57.79;98978.25;5026019;28;20046;-74
2023/05/22 01:30:54;;;;;;;10.10;7.85;;;;;;;18.30;58.50;98997.31;5027149;28;20042;-74
2023/05/22 01:33:24;;;;;;;8.80;7.90;;;;;;;18.30;57.74;99002.66;5024592;28;20050;-74
2023/05/22 01:35:52;;;;;;;8.65;7.45;;;;;;;17.50;57.66;98874.22;5025713;28;20050;-73
2023/05/22 01:38:20;;;;;;;8.73;7.82;;;;;;;18.32;57.55;99002.53;5026821;28;20041;-74
2023/05/22 01:40:47;;;;;;;9.27;8.27;;;;;;;18.29;57.72;99011.69;5025662;28;20038;-74
2023/05/22 01:43:26;;;;;;;10.05;8.50;;;;;;;18.28;57.76;99021.59;5165640;27;20138;-73
2023/05/22 01:45:52;;;;;;;8.85;7.95;;;;;;;18.26;57.50;99006.63;5164689;27;20060;-73
2023/05/22 01:48:19;;;;;;;9.85;8.38;;;;;;;18.22;57.66;99011.41;5165324;27;20045;-73
2023/05/22 01:50:52;;;;;;;9.57;8.05;;;;;;;18.15;58.39;99010.28;5164646;27;20051;-73
2023/05/22 01:53:28;;;;;;;9.60;7.95;;;;;;;18.13;58.88;99009.59;5146519;27;20039;-73
2023/05/22 01:56:01;;;;;;;9.05;8.10;;;;;;;18.12;58.45;99010.56;5164756;27;20091;-73
2023/05/22 01:58:36;;;;;;;9.07;8.00;;;;;;;17.94;58.88;98994.34;5164800;27;20043;-73
2023/05/22 02:01:04;;;;;;;9.55;8.65;;;;;;;18.11;58.18;99008.03;5164316;27;20060;-72
2023/05/22 02:03:33;;;;;;;12.10;8.65;;;;;;;17.95;58.53;98985.31;5146243;27;20121;-73
2023/05/22 02:06:05;;;;;;;9.00;7.75;;;;;;;17.66;58.78;98944.22;5164293;27;20049;-73
2023/05/22 02:08:33;;;;;;;9.05;7.75;;;;;;;17.84;58.64;98979.22;5146206;27;20035;-72
2023/05/22 02:11:02;;;;;;;8.88;8.02;;;;;;;17.75;59.03;98961.31;5164500;27;20206;-73
2023/05/22 02:13:30;;;;;;;8.95;8.05;;;;;;;17.95;59.07;99005.91;5164536;27;20193;-73
2023/05/22 02:15:58;;;;;;;9.50;8.60;;;;;;;17.22;58.80;98890.13;5146044;27;20049;-73
2023/05/22 02:18:29;;;;;;;9.32;8.43;;;;;;;17.91;59.22;98999.97;5164168;27;20039;-72
2023/05/22 02:20:56;;;;;;;9.60;8.65;;;;;;;17.74;59.00;98973.84;5164351;27;20198;-72
2023/05/22 02:23:23;;;;;;;8.27;7.47;;;;;;;17.89;58.84;98993.91;5145942;27;20039;-72
2023/05/22 02:25:50;;;;;;;10.68;8.77;;;;;;;17.85;59.08;98995.16;5146074;27;20176;-73
2023/05/22 02:28:17;;;;;;;8.55;7.75;;;;;;;17.77;59.39;98992.34;5145797;27;20043;-73
2023/05/22 02:30:45;;;;;;;10.27;8.32;;;;;;;17.71;59.68;98995.56;5145784;27;20042;-73
2023/05/22 02:33:12;;;;;;;8.95;8.05;;;;;;;15.79;59.23;98670.13;5164162;27;20046;-72
2023/05/22 02:35:39;;;;;;;9.45;8.43;;;;;;;17.72;59.69;98994.59;5163778;27;20039;-73
2023/05/22 02:38:05;;;;;;;12.70;9.15;;;;;;;17.76;59.33;98995.16;5145684;27;20035;-73
2023/05/22 02:40:32;;;;;;;9.57;8.27;;;;;;;17.73;59.41;98988.25;5145586;27;20049;-73
2023/05/22 02:42:59;;;;;;;10.23;9.07;;;;;;;17.70;59.71;98988.53;5163405;27;20039;-72
2023/05/22 02:45:26;;;;;;;10.25;8.93;;;;;;;17.62;59.76;98991.88;5145504;27;20202;-73
2023/05/22 02:47:54;;;;;;;8.43;7.55;;;;;;;17.59;59.67;98991.28;5145487;27;20039;-72
2023/05/22 02:50:20;;;;;;;11.82;8.20;;;;;;;17.59;59.92;98984.09;5163776;27;20035;-73
2023/05/22 02:52:48;;;;;;;9.00;7.82;;;;;;;17.57;59.51;98987.91;5142678;27;20039;-73
2023/05/22 02:55:15;;;;;;;9.77;8.75;;;;;;;17.56;59.80;98987.03;5150047;27;20100;-73
2023/05/22 02:57:41;;;;;;;9.95;8.63;;;;;;;17.42;59.78;98957.13;5132119;27;20042;-73
2023/05/22 03:00:10;;;;;;;10.60;8.75;;;;;;;17.54;59.92;98980.13;5132300;27;20039;-73
2023/05/22 03:02:37;;;;;;;8.90;8.00;;;;;;;17.52;60.21;98982.94;5131536;27;20310;-73
2023/05/22 03:05:06;;;;;;;9.45;7.80;;;;;;;17.48;60.53;98984.22;5149913;27;20042;-72
2023/05/22 03:07:33;;;;;;;9.55;7.63;;;;;;;17.45;59.96;98987.16;5149363;27;20035;-73
2023/05/22 03:10:00;;;;;;;8.88;8.02;;;;;;;17.41;60.47;98993.78;5149277;27;20043;-73
2023/05/22 03:12:27;;;;;;;9.18;8.07;;;;;;;17.40;60.17;98992.09;5149538;27;20039;-73
2023/05/22 03:14:53;;;;;;;9.85;8.57;;;;;;;17.40;60.29;98984.03;5149193;27;20099;-73
2023/05/22 03:17:20;;;;;;;8.73;7.82;;;;;;;17.38;60.44;98991.38;5149449;27;20035;-73
2023/05/22 03:19:47;;;;;;;10.05;7.82;;;;;;;17.37;60.28;98988.81;5149059;27;20031;-72
2023/05/22 03:22:17;;;;;;;9.40;8.35;;;;;;;17.35;60.63;98988.97;5149591;27;20049;-73
2023/05/22 03:24:44;;;;;;;10.13;8.60;;;;;;;17.31;60.63;98995.56;5130948;27;20038;-73
2023/05/22 03:27:14;;;;;;;13.10;9.70;;;;;;;17.30;60.50;98999.25;5130982;27;20106;-73
2023/05/22 03:29:41;;;;;;;8.80;7.90;;;;;;;17.26;60.66;98995.13;5148926;27;20303;-73
2023/05/22 03:32:08;;;;;;;11.00;8.93;;;;;;;17.24;60.95;98991.75;5149348;27;20036;-73
2023/05/22 03:34:34;;;;;;;8.20;7.38;;;;;;;17.27;60.86;98986.13;5148806;27;20310;-73
2023/05/22 03:37:01;;;;;;;9.77;8.00;;;;;;;16.69;60.39;98905.56;5149338;27;20114;-73
2023/05/22 03:39:29;;;;;;;9.27;8.38;;;;;;;17.25;60.45;98993.44;5131442;27;20035;-72
2023/05/22 03:41:56;;;;;;;9.30;8.40;;;;;;;17.22;60.70;98996.38;5148475;27;20055;-72
2023/05/22 03:44:23;;;;;;;9.02;8.10;;;;;;;17.23;60.87;98996.25;5149162;27;20051;-73
2023/05/22 03:46:49;;;;;;;12.90;9.95;;;;;;;17.00;60.99;98966.13;5148430;27;20043;-73
2023/05/22 03:49:16;;;;;;;10.23;9.23;;;;;;;17.12;60.59;98993.63;5149033;27;20039;-73
2023/05/22 03:51:43;;;;;;;10.15;8.88;;;;;;;17.15;60.68;99009.44;5148515;27;20291;-73
2023/05/22 03:54:10;;;;;;;9.38;8.20;;;;;;;17.13;61.26;99003.38;5131014;27;20043;-73
2023/05/22 03:56:38;;;;;;;9.88;8.48;;;;;;;17.09;60.90;98999.25;5130457;27;20202;-73
2023/05/22 03:59:05;;;;;;;8.70;7.90;;;;;;;17.08;60.82;99002.06;5148314;27;20077;-73
2023/05/22 04:01:32;;;;;;;10.85;9.75;;;;;;;17.07;61.33;99011.09;5130284;27;20061;-73
2023/05/22 04:03:58;;;;;;;11.57;9.00;;;;;;;16.82;61.48;98964.19;5148433;27;20084;-72
2023/05/22 04:06:25;;;;;;;11.90;9.77;;;;;;;17.06;61.13;99012.06;5147608;27;20047;-73
2023/05/22 04:08:52;;;;;;;10.27;8.85;;;;;;;17.04;61.16;99006.84;5148202;27;20039;-72
2023/05/22 04:11:19;;;;;;;16.60;8.95;;;;;;;17.05;61.44;99008.53;5148375;27;20047;-73
2023/05/22 04:13:49;;;;;;;11.75;7.93;;;;;;;17.04;61.45;99006.00;5148070;27;20080;-73
2023/05/22 04:16:17;;;;;;;8.27;7.47;;;;;;;17.04;61.16;99006.00;5148075;27;20031;-73
2023/05/22 04:18:43;;;;;;;11.43;8.98;;;;;;;17.05;61.30;99010.38;5147973;27;20054;-73
2023/05/22 04:21:11;;;;;;;9.93;8.05;;;;;;;16.88;61.70;98980.56;5129844;27;20050;-73
2023/05/22 04:23:38;;;;;;;9.25;8.25;;;;;;;17.04;61.42;99011.34;5148062;27;20050;-73
2023/05/22 04:26:07;;;;;;;12.07;8.80;;;;;;;17.06;61.60;99014.75;5147967;27;20195;-73
2023/05/22 04:28:34;;;;;;;10.77;8.13;;;;;;;17.05;61.42;99005.03;5129694;27;20114;-73
2023/05/22 04:31:05;;;;;;;9.63;8.63;;;;;;;16.87;61.92;98970.00;5148261;27;20039;-73
2023/05/22 04:33:33;;;;;;;10.45;8.73;;;;;;;16.91;61.87;98980.31;5147904;27;20031;-73
2023/05/22 04:36:01;;;;;;;11.35;8.90;;;;;;;17.09;61.85;99009.13;5147932;27;20110;-73
2023/05/22 04:38:28;;;;;;;11.55;9.48;;;;;;;17.14;61.74;99009.56;5147547;27;20046;-73
2023/05/22 04:40:54;;;;;;;10.70;9.18;;;;;;;16.77;61.90;98940.50;5147825;27;20035;-73
2023/05/22 04:43:22;;;;;;;10.13;9.13;;;;;;;17.18;62.07;98998.47;5088590;28;20123;-73
2023/05/22 04:45:50;;;;;;;12.25;10.98;;;;;;;17.19;62.27;98997.47;5106309;28;20219;-73
2023/05/22 04:48:18;;;;;;;10.10;9.02;;;;;;;17.23;61.90;98992.72;5106390;28;20040;-73
2023/05/22 04:50:46;;;;;;;10.77;9.68;;;;;;;17.27;62.08;98999.50;5105470;28;20043;-73
2023/05/22 04:53:12;;;;;;;11.63;9.40;;;;;;;17.31;61.98;99006.28;5106607;28;20051;-73
2023/05/22 04:55:39;;;;;;;10.25;8.73;;;;;;;17.32;62.02;98997.28;5106303;28;20086;-73
2023/05/22 04:58:06;;;;;;;12.65;9.23;;;;;;;17.37;62.14;99002.22;5106224;28;20234;-73
2023/05/22 05:00:33;;;;;;;10.07;8.40;;;;;;;17.38;61.95;99007.44;5106330;28;20050;-73
2023/05/22 05:03:00;;;;;;;9.15;7.20;;;;;;;17.28;61.87;98982.47;5106585;28;20074;-73
2023/05/22 05:05:28;;;;;;;11.88;7.80;;;;;;;17.45;61.96;98997.88;5106625;28;20074;-73
2023/05/22 05:07:55;;;;;;;9.18;7.68;;;;;;;17.23;61.85;98960.59;5106064;28;20066;-73
2023/05/22 05:10:21;;;;;;;10.27;8.45;;;;;;;17.50;61.69;99002.81;5106031;28;20035;-73
2023/05/22 05:12:48;;;;;;;13.88;8.77;;;;;;;17.53;62.21;98999.88;5106498;28;20070;-73
2023/05/22 05:15:15;;;;;;;10.30;7.68;;;;;;;17.57;61.66;99004.81;5106203;28;20276;-73
2023/05/22 05:17:42;;;;;;;10.32;9.15;;;;;;;17.39;61.80;98966.28;5105932;28;20099;-73
2023/05/22 05:20:09;;;;;;;9.20;8.25;;;;;;;17.42;61.85;98962.47;5106353;28;20292;-73
2023/05/22 05:22:38;;;;;;;9.85;8.82;;;;;;;17.66;61.66;99007.69;5106007;28;20046;-73
2023/05/22 05:25:06;;;;;;;11.10;9.15;;;;;;;17.66;61.53;99011.22;5104941;28;20090;-73
2023/05/22 05:27:32;;;;;;;10.73;8.60;;;;;;;17.66;61.71;99008.53;5104915;28;20193;-72
2023/05/22 05:30:00;;;;;;;10.88;9.15;;;;;;;17.70;61.59;99003.75;5104793;28;20043;-73
2023/05/22 05:32:27;;;;;;;14.27;9.38;;;;;;;17.73;61.51;99003.47;5106195;28;20036;-73
2023/05/22 05:34:54;;;;;;;10.45;9.35;;;;;;;17.76;61.74;99003.19;5105847;28;20051;-73
2023/05/22 05:37:20;;;;;;;11.30;9.45;;;;;;;17.74;61.70;99000.66;5105662;28;20044;-73
2023/05/22 05:39:48;;;;;;;10.13;8.63;;;;;;;17.77;61.63;99008.41;5106042;28;20043;-73
2023/05/22 05:42:16;;;;;;;9.68;8.73;;;;;;;17.81;61.62;99007.16;5104514;28;20245;-73
2023/05/22 05:44:43;;;;;;;10.15;8.93;;;;;;;17.83;61.36;99004.34;5105510;28;20044;-73
2023/05/22 05:47:10;;;;;;;9.88;8.82;;;;;;;17.84;61.43;99001.50;5104712;28;20115;-73
2023/05/22 05:49:37;;;;;;;11.88;9.13;;;;;;;17.89;61.63;99010.00;5105413;28;20046;-73
2023/05/22 05:52:04;;;;;;;10.40;9.23;;;;;;;17.92;61.74;99000.81;5105477;28;20035;-73
2023/05/22 05:54:30;;;;;;;10.45;8.82;;;;;;;17.96;61.23;99004.91;5105197;28;20032;-73
2023/05/22 05:56:58;;;;;;;14.88;10.02;;;;;;;17.99;61.29;99004.63;5105233;28;20140;-73
2023/05/22 05:59:26;;;;;;;9.40;8.32;;;;;;;18.06;61.59;99010.28;5105257;28;20044;-73
2023/05/22 06:01:52;;;;;;;9.95;8.35;;;;;;;18.10;61.20;99000.97;5105958;28;20036;-73
2023/05/22 06:04:19;;;;;;;10.10;9.07;;;;;;;18.15;60.91;98998.72;5105954;28;20240;-73
2023/05/22 06:06:46;;;;;;;11.70;9.10;;;;;;;18.19;60.82;98995.59;5104382;28;20052;-73
2023/05/22 06:09:13;;;;;;;13.52;8.50;;;;;;;18.23;60.77;98993.50;5105245;28;20039;-73
2023/05/22 06:11:40;;;;;;;11.07;8.50;;;;;;;18.27;60.47;99008.31;5104309;28;20219;-73
2023/05/22 06:14:09;;;;;;;10.45;8.38;;;;;;;18.28;60.20;99002.81;5105723;28;20103;-72
2023/05/22 06:16:35;;;;;;;9.65;8.52;;;;;;;18.28;60.38;98996.59;5104246;28;20092;-73
2023/05/22 06:19:03;;;;;;;10.30;8.30;;;;;;;18.32;60.28;98999.84;5105461;28;20058;-73
2023/05/22 06:21:30;;;;;;;13.43;9.15;;;;;;;18.35;60.15;98988.81;5105363;28;20036;-73
2023/05/22 06:23:57;;;;;;;11.32;8.43;;;;;;;18.40;60.15;98998.13;5105290;28;20301;-72
2023/05/22 06:26:24;;;;;;;9.77;7.75;;;;;;;18.15;59.80;98945.94;5105115;28;20051;-72
2023/05/22 06:28:52;;;;;;;10.68;7.80;;;;;;;18.51;59.51;98994.47;5105828;28;20092;-73
2023/05/22 06:31:21;;;;;;;9.82;7.85;;;;;;;18.52;58.89;98997.03;5108908;28;20078;-73
2023/05/22 06:33:48;;;;;;;9.30;7.28;;;;;;;18.54;58.97;98989.69;5109203;28;20047;-73
2023/05/22 06:36:16;;;;;;;8.73;7.38;;;;;;;18.58;58.65;98985.72;5108830;28;20054;-73
2023/05/22 06:38:44;;;;;;;10.35;7.55;;;;;;;18.62;58.40;98996.16;5108018;28;20032;-73
2023/05/22 06:41:11;;;;;;;9.65;7.10;;;;;;;18.66;58.47;98990.38;5113200;27;20353;-73
2023/05/22 06:43:38;;;;;;;10.60;7.80;;;;;;;18.71;58.44;98990.78;5149667;27;20045;-73
2023/05/22 06:46:05;;;;;;;9.95;8.68;;;;;;;18.76;58.33;98991.19;5150150;27;20035;-74
2023/05/22 06:48:35;;;;;;;9.20;7.40;;;;;;;18.83;58.28;98988.78;5149676;27;20084;-74
2023/05/22 06:51:02;;;;;;;10.13;7.43;;;;;;;18.90;57.89;98989.88;5131394;27;20041;-74
2023/05/22 06:53:28;;;;;;;9.85;7.25;;;;;;;19.01;57.49;98995.06;5149756;27;20078;-73
2023/05/22 06:55:55;;;;;;;9.10;7.15;;;;;;;19.13;57.37;98991.22;5131500;27;20147;-73
2023/05/22 06:58:22;;;;;;;8.40;6.68;;;;;;;19.24;56.83;98995.53;5149713;27;20043;-73
2023/05/22 07:00:48;;;;;;;7.25;6.18;;;;;;;19.36;56.97;98999.72;5149919;27;20039;-73
2023/05/22 07:03:15;;;;;;;14.77;7.60;;;;;;;19.56;56.62;99003.19;5131322;27;20039;-73
2023/05/22 07:05:44;;;;;;;10.35;6.65;;;;;;;19.80;56.39;98992.75;5149239;27;20054;-73
2023/05/22 07:08:11;;;;;;;6.97;6.30;;;;;;;19.98;55.85;98986.53;5149641;27;20035;-73
2023/05/22 07:10:37;;;;;;;7.00;6.03;;;;;;;19.83;55.50;98930.59;5131200;27;20042;-73
2023/05/22 07:13:04;;;;;;;8.40;7.43;;;;;;;20.32;54.76;98987.56;5131195;27;20031;-73
2023/05/22 07:15:31;;;;;;;11.48;8.13;;;;;;;20.37;54.34;98958.34;5149645;27;20119;-72
2023/05/22 07:17:58;;;;;;;8.18;7.03;;;;;;;20.13;53.68;98883.63;5131009;27;20122;-73
2023/05/22 07:20:25;;;;;;;10.55;6.55;;;;;;;20.79;53.18;98982.69;5149171;27;20050;-73
2023/05/22 07:22:53;;;;;;;7.90;7.10;;;;;;;20.86;53.17;98969.44;5130927;27;20068;-73
2023/05/22 07:25:20;;;;;;;9.30;7.22;;;;;;;21.06;53.01;98962.00;5149225;27;20096;-73
2023/05/22 07:27:47;;;;;;;11.55;7.20;;;;;;;21.28;52.35;98968.69;5149166;27;20045;-73
2023/05/22 07:30:13;;;;;;;9.10;6.80;;;;;;;21.26;51.98;98908.72;5149357;27;20039;-73
2023/05/22 07:32:40;;;;;;;8.73;7.47;;;;;;;21.83;51.33;98969.06;5148494;27;20368;-74
2023/05/22 07:35:09;;;;;;;10.68;7.15;;;;;;;22.03;50.99;98961.50;5130726;27;20100;-73
2023/05/22 07:37:36;;;;;;;9.32;6.60;;;;;;;22.33;50.57;98970.78;5130913;27;20118;-74
2023/05/22 07:40:06;;;;;;;8.93;7.78;;;;;;;22.38;50.06;98968.44;5148588;27;20051;-73
2023/05/22 07:42:33;;;;;;;9.20;7.28;;;;;;;22.31;49.71;98968.25;5148429;27;20323;-73
2023/05/22 07:45:01;;;;;;;7.78;6.95;;;;;;;22.54;49.43;98964.91;5148414;27;20108;-73
2023/05/22 07:47:28;;;;;;;7.45;6.32;;;;;;;22.70;49.17;98965.78;5130539;27;20043;-73
2023/05/22 07:49:55;;;;;;;10.20;6.35;;;;;;;22.84;48.95;98957.97;5149097;27;20039;-73
2023/05/22 07:52:22;;;;;;;8.90;6.97;;;;;;;23.00;48.39;98955.22;5148746;27;20042;-73
2023/05/22 07:54:49;;;;;;;8.15;6.22;;;;;;;23.14;48.13;98949.09;5148368;27;20039;-73
2023/05/22 07:57:17;;;;;;;9.52;6.15;;;;;;;23.34;47.72;98955.81;5148879;27;20042;-73
2023/05/22 07:59:44;;;;;;;11.05;6.22;;;;;;;23.51;47.74;98939.50;5148738;27;20035;-74
2023/05/22 08:02:11;;;;;;;7.80;5.75;;;;;;;23.75;47.49;98944.78;5148631;27;20194;-74
2023/05/22 08:04:38;;;;;;;8.65;6.75;;;;;;;23.15;46.88;98823.75;5130908;27;20035;-73
2023/05/22 08:07:05;;;;;;;9.07;6.50;;;;;;;23.81;46.92;98954.06;5148090;27;20095;-73
2023/05/22 08:09:32;;;;;;;8.32;6.57;;;;;;;23.72;46.94;98950.56;5148016;27;20066;-73
2023/05/22 08:11:58;;;;;;;17.00;7.25;;;;;;;23.82;47.32;98945.75;5148253;27;20202;-73
2023/05/22 08:14:27;;;;;;;7.65;5.78;;;;;;;23.93;46.65;98950.75;5148074;27;20039;-74
2023/05/22 08:16:53;;;;;;;13.40;7.70;;;;;;;23.99;46.69;98943.81;5148433;27;20050;-73
2023/05/22 08:19:20;;;;;;;8.23;6.47;;;;;;;24.05;46.67;98943.09;5147774;27;20039;-74
2023/05/22 08:21:47;;;;;;;9.07;7.47;;;;;;;24.22;46.36;98938.38;5130113;27;20031;-74
2023/05/22 08:24:14;;;;;;;8.15;7.32;;;;;;;24.46;45.72;98937.34;5148236;27;20047;-74
2023/05/22 08:26:42;;;;;;;8.90;6.85;;;;;;;24.67;45.59;98939.38;5129582;27;20080;-73
2023/05/22 08:29:09;;;;;;;7.70;6.85;;;;;;;24.83;45.63;98933.78;5147797;27;20039;-73
2023/05/22 08:31:37;;;;;;;10.48;7.55;;;;;;;24.95;44.99;98933.13;5147608;27;20050;-73
2023/05/22 08:34:05;;;;;;;8.85;7.53;;;;;;;24.71;45.24;98927.13;5147461;27;20299;-74
2023/05/22 08:36:32;;;;;;;10.43;7.47;;;;;;;24.62;45.71;98939.88;5147569;27;20354;-73
2023/05/22 08:39:00;;;;;;;17.35;9.20;;;;;;;24.42;45.85;98931.44;5147436;27;20043;-74
2023/05/22 08:41:27;;;;;;;10.55;6.75;;;;;;;23.93;46.24;98857.91;5128714;27;20122;-74
2023/05/22 08:43:54;;;;;;;13.88;8.00;;;;;;;24.50;46.18;98923.25;5147029;27;20100;-73
2023/05/22 08:46:24;;;;;;;10.57;7.65;;;;;;;24.56;46.13;98927.09;5147524;27;20047;-74
2023/05/22 08:48:57;;;;;;;9.65;6.88;;;;;;;24.64;44.32;98906.16;5129266;27;20066;-73
2023/05/22 08:51:30;;;;;;;8.75;6.10;;;;;;;24.76;43.96;98936.38;5147041;27;20038;-73
2023/05/22 08:53:57;;;;;;;8.83;6.63;;;;;;;24.61;45.69;98935.50;5147536;27;20114;-73
2023/05/22 08:56:24;;;;;;;9.07;6.55;;;;;;;24.74;45.59;98916.75;5147201;27;20099;-74
2023/05/22 08:58:51;;;;;;;7.07;6.07;;;;;;;24.99;45.14;98922.75;5147573;27;20049;-74
2023/05/22 09:01:18;;;;;;;8.15;5.47;;;;;;;25.08;44.90;98918.94;5129065;27;20045;-74
2023/05/22 09:03:48;;;;;;;11.25;5.60;;;;;;;25.17;44.82;98920.53;5147263;27;20047;-74
2023/05/22 09:06:16;;;;;;;7.47;6.18;;;;;;;25.29;43.90;98923.59;5147018;27;20100;-74
2023/05/22 09:08:43;;;;;;;8.63;6.13;;;;;;;25.06;43.81;98872.22;5147520;27;20039;-73
2023/05/22 09:11:11;;;;;;;8.10;5.78;;;;;;;25.29;43.90;98869.38;5128724;27;20046;-74
2023/05/22 09:13:39;;;;;;;7.25;5.95;;;;;;;25.63;43.35;98914.88;5147051;27;20031;-74
2023/05/22 09:16:08;;;;;;;7.85;6.45;;;;;;;25.78;42.90;98914.81;5128849;27;20035;-74
2023/05/22 09:18:37;;;;;;;7.00;6.35;;;;;;;25.84;42.84;98920.31;5146850;27;20038;-74
2023/05/22 09:21:04;;;;;;;6.63;4.82;;;;;;;25.81;43.51;98915.28;5128592;27;20303;-74
2023/05/22 09:23:32;;;;;;;9.63;5.43;;;;;;;25.90;43.10;98919.56;5128644;27;20386;-74
2023/05/22 09:26:00;;;;;;;8.93;6.32;;;;;;;25.79;42.91;98913.78;5146513;27;20092;-74
2023/05/22 09:28:27;;;;;;;9.23;6.72;;;;;;;25.71;43.02;98913.91;5128646;27;20039;-74
2023/05/22 09:30:55;;;;;;;8.80;6.13;;;;;;;25.41;43.38;98851.59;5128354;27;20035;-74
2023/05/22 09:33:23;;;;;;;8.40;6.47;;;;;;;25.75;42.43;98885.34;5146624;27;20043;-74
2023/05/22 09:35:52;;;;;;;8.77;5.68;;;;;;;26.03;42.64;98910.72;5146810;27;20064;-74
2023/05/22 09:38:19;;;;;;;13.57;5.53;;;;;;;26.11;42.11;98913.31;5146714;27;20069;-74
2023/05/22 09:40:52;;;;;;;6.88;5.50;;;;;;;26.12;42.20;98904.13;5146663;27;20047;-74
2023/05/22 09:43:19;;;;;;;7.13;5.93;;;;;;;26.10;42.29;98908.06;5146277;28;20222;-73
2023/05/22 09:45:45;;;;;;;8.18;5.70;;;;;;;26.01;42.29;98909.25;5146548;28;20047;-74
2023/05/22 09:48:16;;;;;;;6.93;6.07;;;;;;;25.96;41.92;98911.66;5146814;28;20061;-74
2023/05/22 09:50:47;;;;;;;7.07;6.30;;;;;;;25.96;41.36;98917.94;5128251;28;20035;-74
2023/05/22 09:53:17;;;;;;;8.77;6.22;;;;;;;25.94;42.07;98884.72;5146527;28;20108;-74
2023/05/22 09:55:46;;;;;;;6.57;5.30;;;;;;;26.20;42.03;98904.00;5146147;28;20110;-74
2023/05/22 09:58:19;;;;;;;10.38;6.18;;;;;;;26.28;40.89;98899.47;5146585;28;20045;-73
2023/05/22 10:00:48;;;;;;;11.38;5.93;;;;;;;26.34;41.58;98906.81;5128189;28;20057;-74
2023/05/22 10:03:17;;;;;;;7.78;5.68;;;;;;;26.40;41.84;98898.72;5128865;27;20133;-74
2023/05/22 10:05:48;;;;;;;9.35;6.43;;;;;;;26.35;41.78;98906.63;5150396;27;20032;-74
2023/05/22 10:08:17;;;;;;;7.10;5.95;;;;;;;26.32;42.31;98898.03;5150430;27;20047;-74
2023/05/22 10:10:50;;;;;;;9.40;6.25;;;;;;;26.28;40.98;98891.31;5132077;27;20047;-74
2023/05/22 10:13:19;;;;;;;9.40;7.10;;;;;;;26.34;41.92;98885.09;5150480;27;20035;-74
2023/05/22 10:15:47;;;;;;;10.68;6.25;;;;;;;26.10;41.25;98845.63;5150461;27;20061;-74
2023/05/22 10:18:15;;;;;;;7.80;6.45;;;;;;;26.43;41.21;98883.91;5150207;27;20084;-74
2023/05/22 10:20:42;;;;;;;6.53;5.82;;;;;;;26.50;41.36;98885.63;5150431;27;20092;-73
2023/05/22 10:23:09;;;;;;;6.97;6.28;;;;;;;26.58;40.88;98875.66;5150143;27;20076;-74
2023/05/22 10:25:38;;;;;;;9.88;6.32;;;;;;;26.61;40.40;98867.97;5149849;27;20098;-74
2023/05/22 10:28:06;;;;;;;7.45;6.25;;;;;;;26.43;41.07;98838.56;5150349;27;20043;-73
2023/05/22 10:30:41;;;;;;;9.02;7.13;;;;;;;26.61;39.55;98875.28;5148986;27;20035;-74
2023/05/22 10:33:12;;;;;;;8.02;5.63;;;;;;;26.43;40.30;98884.75;5149804;27;20047;-74
2023/05/22 10:35:43;;;;;;;5.95;5.32;;;;;;;26.33;40.75;98870.66;5149707;27;20336;-74
2023/05/22 10:38:35;;;;;;;6.97;5.43;;;;;;;26.39;39.50;98866.31;5148619;27;20039;-74
2023/05/22 10:41:03;;;;;;;5.78;5.28;;;;;;;26.43;40.38;98859.47;5148506;27;20043;-74
2023/05/22 10:43:31;;;;;;;8.40;5.63;;;;;;;26.03;40.26;98817.56;5149516;27;20060;-74
2023/05/22 10:46:08;;;;;;;5.78;5.15;;;;;;;26.02;38.62;98829.47;5149114;27;20080;-74
2023/05/22 10:48:38;;;;;;;7.88;6.32;;;;;;;26.33;40.27;98867.94;5149795;27;20039;-70
2023/05/22 10:51:06;;;;;;;5.75;5.15;;;;;;;26.38;40.45;98864.66;5132084;27;20039;-71
2023/05/22 10:53:35;;;;;;;8.05;5.25;;;;;;;26.00;40.14;98816.09;5149820;27;20084;-70
2023/05/22 10:56:10;;;;;;;6.20;5.40;;;;;;;26.34;39.85;98856.06;5149720;27;20107;-70
2023/05/22 10:58:37;;;;;;;8.40;5.78;;;;;;;26.48;39.84;98855.09;5149400;27;20241;-70
2023/05/22 11:01:12;;;;;;;8.40;6.50;;;;;;;26.54;38.45;98854.31;5149549;27;20051;-70
2023/05/22 11:03:52;;;;;;;16.65;6.28;;;;;;;26.54;39.50;98846.16;5148463;27;20329;-70
2023/05/22 11:06:37;;;;;;;7.60;6.38;;;;;;;26.52;37.98;98842.81;5149794;27;20096;-69
2023/05/22 11:09:29;;;;;;;10.18;6.25;;;;;;;26.33;37.24;98840.78;5149255;27;20047;-69
2023/05/22 11:12:21;;;;;;;6.97;5.13;;;;;;;26.21;38.02;98835.06;5149138;27;20039;-69
2023/05/22 11:14:52;;;;;;;8.80;5.30;;;;;;;26.14;39.34;98817.03;5129389;27;20311;-70
2023/05/22 11:17:23;;;;;;;6.53;5.18;;;;;;;26.31;39.43;98832.00;5149444;27;20110;-70
2023/05/22 11:19:58;;;;;;;6.15;5.28;;;;;;;26.40;38.12;98828.09;5149275;27;20039;-71
2023/05/22 11:22:33;;;;;;;5.50;4.78;;;;;;;26.46;37.72;98824.56;5149159;27;20059;-71
2023/05/22 11:25:03;;;;;;;6.95;5.10;;;;;;;26.36;38.68;98807.78;5148817;27;20054;-70
2023/05/22 11:27:31;;;;;;;6.20;4.35;;;;;;;26.39;38.54;98831.00;5148857;27;20318;-71
2023/05/22 11:30:00;;;;;;;6.63;5.60;;;;;;;26.03;38.84;98761.38;5148544;27;20106;-71
2023/05/22 11:32:29;;;;;;;4.53;3.90;;;;;;;26.43;38.57;98822.25;5147777;27;20118;-71
2023/05/22 11:34:57;;;;;;;5.90;4.40;;;;;;;26.49;38.76;98807.88;5148941;27;20047;-70
2023/05/22 11:37:24;;;;;;;6.55;4.70;;;;;;;26.57;38.48;98811.47;5149149;27;20055;-70